首页
METAR-TAF:

METAR-TAF

机场 :

大阪國際機場

大阪, 日本

纬度: 34-47N, 经度: 135-27E, 海拔: 12米

当前天气观测

该预报发布于18分钟前的01:00 UTC
风速2节,风向多变
温度 33°C
湿度 49%
气压 1011 hPa
能见度10公里或以上
少量云层高于2500英尺
散云

METAR: RJOO 180100Z VRB02KT 9999 FEW025 SCT/// 33/21 Q1011 RMK 1CU025 A2986

时间: 10:18 (01:18 UTC)

预报

该预报发布于2小时和10分钟前的23:08 UTC
预报有效从18日的 00点(UTC)到 19日的 06点(UTC)
风速7节,风向西南
能见度10公里或以上
少量云层高于3000英尺
成为
从 18日的 07点(UTC)到 18日的 09点(UTC)
风速5节,风向西北
短暂存在
从 18日的 08点(UTC)到 18日的 10点(UTC)
少量云层高于2000英尺
少量云层高于2500英尺, 积雨云.
多云层高于4000英尺
雷暴
成为
从 19日的 00点(UTC)到 19日的 03点(UTC)
风速5节,风向西南

TAF: RJOO 172308Z 1800/1906 22007KT 9999 FEW030 BECMG 1807/1809 32005KT TEMPO 1808/1810 TS FEW020 FEW025CB BKN040 BECMG 1900/1903 22005KT

超过4000个机场的气象观测和天气预报(METAR&TAF报告)。

可查询的气象台以黄色和红色小点在地图上表示。

将鼠标移到小点上方,可查看气象台名称。

然后点击查看天气观测和预报。

如需切换地图:点击带黑十字的绿色按钮放大地图;点击带横线的绿色按钮缩小地图;或者点击绿色箭头查看邻近地区的地图。


METAR-TAF: